Sea Wind — SFC8821 — position and weather

sailwx.info

Track history (hours):
 
Tides and Currents Weather Stations Pressure Air Temp Water Temp Dewpoint Dewpoint Depression Visibility Wind Speed Wind Dir Waves Ship Positions

Sea Wind

Last reported at 2017-Sep-27 09:12 UTC. Time now 2017-Oct-17 15:43 UTC.
Position N 37°48' W 008°54'.
Warning: this ship's position is 20 days out of date.

Length 12 m.

Type: Sailing vessel. MMSI: 265589740.

Date/timePositionNaut miles runAvg speedWind from/ knotsBaromVisibWave heightAir tempDewpointWater temp
2017-Sep-27 09:12N 37°48' W 008°54'1 5.7
2017-Sep-27 09:00N 37°49' W 008°54'2 4.6
2017-Sep-27 08:30N 37°52' W 008°54'3 5.4
2017-Sep-27 08:00N 37°54' W 008°53'2 4.9
2017-Sep-27 07:31N 37°57' W 008°53'1 1.3
2017-Sep-27 06:58N 37°57' W 008°52'0 0.0
2017-Sep-27 06:28N 37°57' W 008°52'0 0.0
2017-Sep-27 05:58N 37°57' W 008°52'0 0.0
2017-Sep-27 05:28N 37°57' W 008°52'0 0.0
2017-Sep-27 04:58N 37°57' W 008°52'0 0.0
2017-Sep-27 04:28N 37°57' W 008°52'0 0.0
2017-Sep-27 03:58N 37°57' W 008°52'0 0.0
2017-Sep-27 03:28N 37°57' W 008°52'0 0.0
2017-Sep-27 02:58N 37°57' W 008°52'0 0.0
2017-Sep-27 02:28N 37°57' W 008°52'0 0.0
2017-Sep-27 01:58N 37°57' W 008°52'0 0.0
2017-Sep-27 01:28N 37°57' W 008°52'0 0.0
2017-Sep-27 00:58N 37°57' W 008°52'0 0.0
2017-Sep-27 00:28N 37°57' W 008°52'0 0.0
2017-Sep-26 23:58N 37°57' W 008°52'0 0.0
2017-Sep-26 23:28N 37°57' W 008°52'0 0.0
2017-Sep-26 22:58N 37°57' W 008°52'0 0.0
2017-Sep-26 22:28N 37°57' W 008°52'0 0.0
2017-Sep-26 21:58N 37°57' W 008°52'0 0.0
2017-Sep-26 21:28N 37°57' W 008°52'0 0.0
2017-Sep-26 20:58N 37°57' W 008°52'0 0.0
2017-Sep-26 20:25N 37°57' W 008°52'0 0.0
2017-Sep-26 19:58N 37°57' W 008°52'0 0.0
2017-Sep-26 19:28N 37°57' W 008°52'0 0.0
2017-Sep-26 18:58N 37°57' W 008°52'1 2.3
2017-Sep-26 18:30N 37°56' W 008°53'2 3.9
2017-Sep-26 18:00N 37°57' W 008°55'3 5.5
2017-Sep-26 17:30N 37°59' W 008°57'3 5.6
2017-Sep-26 17:00N 38°02' W 008°59'3 5.9
2017-Sep-26 16:30N 38°04' W 009°01'3 6.2
2017-Sep-26 16:00N 38°07' W 009°03'3 7.0
2017-Sep-26 15:30N 38°10' W 009°05'3 6.8
2017-Sep-26 15:00N 38°13' W 009°08'3 6.8
2017-Sep-26 14:30N 38°16' W 009°10'3 6.4
2017-Sep-26 14:00N 38°19' W 009°11'3 5.7
2017-Sep-26 13:30N 38°21' W 009°13'2 4.1
2017-Sep-26 13:00N 38°23' W 009°14'3 5.9
2017-Sep-26 12:30N 38°26' W 009°16'3 6.2
2017-Sep-26 12:00N 38°29' W 009°17'3 5.9
2017-Sep-26 11:31N 38°31' W 009°18'3 5.2
2017-Sep-26 10:58N 38°34' W 009°19'2 4.6
2017-Sep-26 10:29N 38°36' W 009°20'3 5.4
2017-Sep-26 10:00N 38°39' W 009°20'3 6.0
2017-Sep-26 09:30N 38°41' W 009°17'4 7.1
2017-Sep-26 08:59N 38°42' W 009°12'2 0.3
2017-Sep-26 03:38N 38°42' W 009°10'0 0.0
2017-Sep-26 03:26N 38°42' W 009°10'0 0.0
2017-Sep-25 20:02N 38°42' W 009°10'0 0.0
2017-Sep-25 10:59N 38°42' W 009°10'0 0.0
2017-Sep-25 09:02N 38°42' W 009°10'0 0.0
2017-Sep-25 01:14N 38°42' W 009°10'0 0.0
2017-Sep-25 00:11N 38°42' W 009°10'0 0.0
2017-Sep-24 23:44N 38°42' W 009°10'0 0.0
2017-Sep-24 15:32N 38°42' W 009°10'0 0.0
2017-Sep-24 15:17N 38°42' W 009°10'0 0.0
2017-Sep-24 13:32N 38°42' W 009°10'0 0.0
2017-Sep-24 13:08N 38°42' W 009°10'0 0.0
2017-Sep-24 12:56N 38°42' W 009°10'0 0.0
2017-Sep-24 09:26N 38°42' W 009°10'0 0.0
2017-Sep-24 08:56N 38°42' W 009°10'0 0.0
2017-Sep-24 08:26N 38°42' W 009°10'0 0.0
2017-Sep-24 07:50N 38°42' W 009°10'0 0.0
2017-Sep-24 07:14N 38°42' W 009°10'0 0.0
2017-Sep-24 00:38N 38°42' W 009°10'0 0.0
2017-Sep-24 00:08N 38°42' W 009°10'0 0.0
2017-Sep-23 23:02N 38°42' W 009°10'11 0.2
2017-Sep-22 01:51N 38°42' W 009°25'0 0.0
2017-Sep-22 01:30N 38°42' W 009°25'0 0.8
2017-Sep-22 01:00N 38°41' W 009°25'2 4.8
2017-Sep-22 00:30N 38°41' W 009°28'3 5.3
2017-Sep-21 23:58N 38°43' W 009°31'3 6.3
2017-Sep-21 23:30N 38°46' W 009°32'3 6.9
2017-Sep-21 23:00N 38°49' W 009°33'3 6.4
2017-Sep-21 22:30N 38°52' W 009°34'3 6.1
2017-Sep-21 22:00N 38°55' W 009°36'3 5.4
2017-Sep-21 21:30N 38°58' W 009°35'3 6.9
2017-Sep-21 21:01N 39°01' W 009°34'4 7.0
2017-Sep-21 20:30N 39°04' W 009°32'3 6.7
2017-Sep-21 20:00N 39°07' W 009°30'  
Track history (hours):
 
Tides and Currents Weather Stations Pressure Air Temp Water Temp Dewpoint Dewpoint Depression Visibility Wind Speed Wind Dir Waves Ship Positions

Sea Wind

Last reported at 2017-Sep-27 09:12 UTC. Time now 2017-Oct-17 15:43 UTC.
Position N 37°48' W 008°54'.
Warning: this ship's position is 20 days out of date.

Length 12 m.

Type: Sailing vessel. MMSI: 265589740.

Date/timePositionNaut miles runAvg speedWind from/ knotsBaromVisibWave heightAir tempDewpointWater temp
2017-Sep-27 09:12N 37°48' W 008°54'1 5.7
2017-Sep-27 09:00N 37°49' W 008°54'2 4.6
2017-Sep-27 08:30N 37°52' W 008°54'3 5.4
2017-Sep-27 08:00N 37°54' W 008°53'2 4.9
2017-Sep-27 07:31N 37°57' W 008°53'1 1.3
2017-Sep-27 06:58N 37°57' W 008°52'0 0.0
2017-Sep-27 06:28N 37°57' W 008°52'0 0.0
2017-Sep-27 05:58N 37°57' W 008°52'0 0.0
2017-Sep-27 05:28N 37°57' W 008°52'0 0.0
2017-Sep-27 04:58N 37°57' W 008°52'0 0.0
2017-Sep-27 04:28N 37°57' W 008°52'0 0.0
2017-Sep-27 03:58N 37°57' W 008°52'0 0.0
2017-Sep-27 03:28N 37°57' W 008°52'0 0.0
2017-Sep-27 02:58N 37°57' W 008°52'0 0.0
2017-Sep-27 02:28N 37°57' W 008°52'0 0.0
2017-Sep-27 01:58N 37°57' W 008°52'0 0.0
2017-Sep-27 01:28N 37°57' W 008°52'0 0.0
2017-Sep-27 00:58N 37°57' W 008°52'0 0.0
2017-Sep-27 00:28N 37°57' W 008°52'0 0.0
2017-Sep-26 23:58N 37°57' W 008°52'0 0.0
2017-Sep-26 23:28N 37°57' W 008°52'0 0.0
2017-Sep-26 22:58N 37°57' W 008°52'0 0.0
2017-Sep-26 22:28N 37°57' W 008°52'0 0.0
2017-Sep-26 21:58N 37°57' W 008°52'0 0.0
2017-Sep-26 21:28N 37°57' W 008°52'0 0.0
2017-Sep-26 20:58N 37°57' W 008°52'0 0.0
2017-Sep-26 20:25N 37°57' W 008°52'0 0.0
2017-Sep-26 19:58N 37°57' W 008°52'0 0.0
2017-Sep-26 19:28N 37°57' W 008°52'0 0.0
2017-Sep-26 18:58N 37°57' W 008°52'1 2.3
2017-Sep-26 18:30N 37°56' W 008°53'2 3.9
2017-Sep-26 18:00N 37°57' W 008°55'3 5.5
2017-Sep-26 17:30N 37°59' W 008°57'3 5.6
2017-Sep-26 17:00N 38°02' W 008°59'3 5.9
2017-Sep-26 16:30N 38°04' W 009°01'3 6.2
2017-Sep-26 16:00N 38°07' W 009°03'3 7.0
2017-Sep-26 15:30N 38°10' W 009°05'3 6.8
2017-Sep-26 15:00N 38°13' W 009°08'3 6.8
2017-Sep-26 14:30N 38°16' W 009°10'3 6.4
2017-Sep-26 14:00N 38°19' W 009°11'3 5.7
2017-Sep-26 13:30N 38°21' W 009°13'2 4.1
2017-Sep-26 13:00N 38°23' W 009°14'3 5.9
2017-Sep-26 12:30N 38°26' W 009°16'3 6.2
2017-Sep-26 12:00N 38°29' W 009°17'3 5.9
2017-Sep-26 11:31N 38°31' W 009°18'3 5.2
2017-Sep-26 10:58N 38°34' W 009°19'2 4.6
2017-Sep-26 10:29N 38°36' W 009°20'3 5.4
2017-Sep-26 10:00N 38°39' W 009°20'3 6.0
2017-Sep-26 09:30N 38°41' W 009°17'4 7.1
2017-Sep-26 08:59N 38°42' W 009°12'2 0.3
2017-Sep-26 03:38N 38°42' W 009°10'0 0.0
2017-Sep-26 03:26N 38°42' W 009°10'0 0.0
2017-Sep-25 20:02N 38°42' W 009°10'0 0.0
2017-Sep-25 10:59N 38°42' W 009°10'0 0.0
2017-Sep-25 09:02N 38°42' W 009°10'0 0.0
2017-Sep-25 01:14N 38°42' W 009°10'0 0.0
2017-Sep-25 00:11N 38°42' W 009°10'0 0.0
2017-Sep-24 23:44N 38°42' W 009°10'0 0.0
2017-Sep-24 15:32N 38°42' W 009°10'0 0.0
2017-Sep-24 15:17N 38°42' W 009°10'0 0.0
2017-Sep-24 13:32N 38°42' W 009°10'0 0.0
2017-Sep-24 13:08N 38°42' W 009°10'0 0.0
2017-Sep-24 12:56N 38°42' W 009°10'0 0.0
2017-Sep-24 09:26N 38°42' W 009°10'0 0.0
2017-Sep-24 08:56N 38°42' W 009°10'0 0.0
2017-Sep-24 08:26N 38°42' W 009°10'0 0.0
2017-Sep-24 07:50N 38°42' W 009°10'0 0.0
2017-Sep-24 07:14N 38°42' W 009°10'0 0.0
2017-Sep-24 00:38N 38°42' W 009°10'0 0.0
2017-Sep-24 00:08N 38°42' W 009°10'0 0.0
2017-Sep-23 23:02N 38°42' W 009°10'11 0.2
2017-Sep-22 01:51N 38°42' W 009°25'0 0.0
2017-Sep-22 01:30N 38°42' W 009°25'0 0.8
2017-Sep-22 01:00N 38°41' W 009°25'2 4.8
2017-Sep-22 00:30N 38°41' W 009°28'3 5.3
2017-Sep-21 23:58N 38°43' W 009°31'3 6.3
2017-Sep-21 23:30N 38°46' W 009°32'3 6.9
2017-Sep-21 23:00N 38°49' W 009°33'3 6.4
2017-Sep-21 22:30N 38°52' W 009°34'3 6.1
2017-Sep-21 22:00N 38°55' W 009°36'3 5.4
2017-Sep-21 21:30N 38°58' W 009°35'3 6.9
2017-Sep-21 21:01N 39°01' W 009°34'4 7.0
2017-Sep-21 20:30N 39°04' W 009°32'3 6.7
2017-Sep-21 20:00N 39°07' W 009°30'  

Dump ship's entire track history